createdAt,value
2023-05-05T00:00:09.052Z,100.00
2023-05-05T00:02:38.228Z,100.00
2023-05-05T00:05:08.265Z,100.00
2023-05-05T00:07:37.122Z,100.00
2023-05-05T00:10:07.188Z,100.00
2023-05-05T00:12:36.338Z,100.00
2023-05-05T00:15:07.754Z,100.00
2023-05-05T00:17:36.604Z,100.00
2023-05-05T00:20:06.606Z,100.00
2023-05-05T00:22:36.311Z,100.00
2023-05-05T00:25:06.208Z,100.00
2023-05-05T00:27:35.095Z,100.00
2023-05-05T00:30:04.037Z,100.00
2023-05-05T00:32:34.385Z,100.00
2023-05-05T00:35:03.344Z,100.00
2023-05-05T00:37:32.154Z,100.00
2023-05-05T00:40:01.081Z,100.00
2023-05-05T00:42:40.798Z,100.00
2023-05-05T00:45:10.722Z,100.00
2023-05-05T00:47:43.929Z,100.00
2023-05-05T00:50:22.574Z,100.00
2023-05-05T00:52:52.723Z,100.00
2023-05-05T00:55:22.176Z,100.00
2023-05-05T00:57:51.052Z,100.00
2023-05-05T01:00:20.050Z,100.00
2023-05-05T01:02:51.320Z,100.00
2023-05-05T01:05:21.230Z,100.00
2023-05-05T01:08:03.977Z,100.00
2023-05-05T01:10:39.484Z,100.00
2023-05-05T01:13:21.837Z,100.00
2023-05-05T01:15:55.112Z,100.00
2023-05-05T01:18:33.213Z,100.00
2023-05-05T01:21:08.239Z,100.00
2023-05-05T01:24:12.050Z,100.00
2023-05-05T01:27:00.280Z,100.00
2023-05-05T01:30:02.111Z,100.00
2023-05-05T01:32:35.887Z,100.00
2023-05-05T01:35:11.353Z,100.00
2023-05-05T01:37:48.760Z,100.00
2023-05-05T01:40:22.655Z,100.00
2023-05-05T01:42:52.474Z,100.00
2023-05-05T01:45:23.414Z,100.00
2023-05-05T01:47:55.962Z,100.00
2023-05-05T01:50:29.297Z,100.00
2023-05-05T01:53:00.715Z,100.00
2023-05-05T01:55:32.190Z,100.00
2023-05-05T01:58:03.470Z,100.00
2023-05-05T02:00:33.243Z,100.00
2023-05-05T02:03:06.664Z,100.00
2023-05-05T02:05:37.586Z,100.00
2023-05-05T02:08:07.917Z,100.00
2023-05-05T02:10:40.955Z,100.00
2023-05-05T02:13:13.094Z,100.00
2023-05-05T02:15:44.423Z,100.00
2023-05-05T02:18:16.006Z,100.00
2023-05-05T02:20:46.790Z,100.00
2023-05-05T02:23:15.768Z,100.00
2023-05-05T02:25:50.889Z,100.00
2023-05-05T02:28:22.615Z,100.00
2023-05-05T02:30:58.056Z,100.00
2023-05-05T02:33:30.490Z,100.00
2023-05-05T02:36:07.980Z,100.00
2023-05-05T02:38:41.438Z,100.00
2023-05-05T02:41:16.652Z,100.00
2023-05-05T02:43:49.678Z,100.00
2023-05-05T02:46:20.630Z,100.00
2023-05-05T02:48:51.631Z,100.00
2023-05-05T02:51:20.718Z,100.00
2023-05-05T02:53:49.803Z,100.00
2023-05-05T02:56:27.880Z,100.00
2023-05-05T02:59:10.064Z,100.00
2023-05-05T03:01:52.184Z,100.00
2023-05-05T03:04:28.610Z,100.00
2023-05-05T03:07:00.433Z,100.00
2023-05-05T03:09:38.134Z,100.00
2023-05-05T03:12:10.297Z,100.00
2023-05-05T03:14:59.708Z,100.00
2023-05-05T03:17:32.972Z,100.00
2023-05-05T03:20:07.278Z,100.00
2023-05-05T03:22:39.446Z,100.00
2023-05-05T03:25:13.566Z,100.00
2023-05-05T03:27:42.996Z,100.00
2023-05-05T03:30:14.978Z,100.00
2023-05-05T03:32:50.186Z,100.00
2023-05-05T03:35:21.176Z,100.00
2023-05-05T03:37:50.182Z,100.00
2023-05-05T03:40:21.003Z,100.00
2023-05-05T03:42:52.808Z,100.00
2023-05-05T03:45:22.182Z,100.00
2023-05-05T03:47:51.387Z,100.00
2023-05-05T03:50:22.321Z,100.00
2023-05-05T03:52:51.505Z,100.00
2023-05-05T03:55:20.727Z,100.00
2023-05-05T03:57:49.618Z,100.00
2023-05-05T04:00:19.053Z,100.00
2023-05-05T04:02:48.076Z,100.00
2023-05-05T04:05:22.658Z,100.00
2023-05-05T04:07:51.807Z,100.00
2023-05-05T04:10:21.599Z,100.00
2023-05-05T04:12:50.692Z,100.00
2023-05-05T04:15:19.516Z,100.00
2023-05-05T04:17:48.436Z,100.00
2023-05-05T04:20:17.473Z,100.00
2023-05-05T04:22:47.705Z,100.00
2023-05-05T04:25:17.216Z,100.00
2023-05-05T04:27:47.369Z,100.00
2023-05-05T04:30:20.211Z,100.00
2023-05-05T04:32:49.225Z,100.00
2023-05-05T04:35:18.373Z,100.00
2023-05-05T04:37:48.935Z,100.00
2023-05-05T04:40:18.114Z,100.00
2023-05-05T04:42:47.108Z,100.00
2023-05-05T04:45:16.543Z,100.00
2023-05-05T04:47:45.447Z,100.00
2023-05-05T04:50:14.747Z,100.00
2023-05-05T04:52:43.603Z,100.00
2023-05-05T04:55:13.954Z,100.00
2023-05-05T04:57:43.239Z,100.00
2023-05-05T05:00:13.397Z,100.00
2023-05-05T05:02:42.246Z,100.00
2023-05-05T05:05:11.548Z,100.00
2023-05-05T05:07:40.946Z,100.00
2023-05-05T05:10:10.723Z,100.00
2023-05-05T05:12:41.100Z,100.00
2023-05-05T05:15:11.349Z,100.00
2023-05-05T05:17:40.621Z,100.00
2023-05-05T05:20:10.573Z,100.00
2023-05-05T05:22:41.043Z,100.00
2023-05-05T05:25:14.306Z,100.00
2023-05-05T05:27:46.798Z,100.00
2023-05-05T05:30:20.250Z,100.00
2023-05-05T05:32:49.177Z,100.00
2023-05-05T05:35:18.543Z,100.00
2023-05-05T05:37:48.041Z,100.00
2023-05-05T05:40:17.697Z,100.00
2023-05-05T05:42:48.092Z,100.00
2023-05-05T05:45:17.191Z,100.00
2023-05-05T05:47:46.860Z,100.00
2023-05-05T05:50:16.485Z,100.00
2023-05-05T05:52:45.936Z,100.00
2023-05-05T05:55:14.835Z,100.00
2023-05-05T05:57:43.750Z,100.00
2023-05-05T06:00:17.058Z,100.00
2023-05-05T06:02:52.796Z,100.00
2023-05-05T06:05:25.283Z,100.00
2023-05-05T06:07:54.579Z,100.00
2023-05-05T06:10:28.251Z,100.00
2023-05-05T06:13:03.739Z,100.00
2023-05-05T06:15:35.871Z,100.00
2023-05-05T06:18:06.776Z,100.00
2023-05-05T06:20:35.643Z,100.00
2023-05-05T06:23:04.518Z,100.00
2023-05-05T06:25:35.901Z,100.00
2023-05-05T06:28:05.752Z,100.00
2023-05-05T06:30:36.256Z,100.00
2023-05-05T06:33:05.290Z,100.00
2023-05-05T06:35:34.162Z,100.00
2023-05-05T06:38:03.026Z,100.00
2023-05-05T06:40:31.939Z,100.00
2023-05-05T06:43:00.776Z,100.00
2023-05-05T06:45:37.266Z,100.00
2023-05-05T06:48:06.183Z,100.00
2023-05-05T06:50:34.968Z,100.00
2023-05-05T06:53:03.825Z,100.00
2023-05-05T06:55:32.691Z,100.00
2023-05-05T06:58:01.700Z,100.00
2023-05-05T07:00:30.875Z,100.00
2023-05-05T07:03:02.125Z,100.00
2023-05-05T07:05:31.082Z,100.00
2023-05-05T07:08:00.492Z,100.00
2023-05-05T07:10:29.519Z,100.00
2023-05-05T07:12:58.399Z,100.00
2023-05-05T07:15:29.684Z,100.00
2023-05-05T07:18:00.286Z,100.00
2023-05-05T07:20:29.606Z,100.00
2023-05-05T07:22:58.413Z,100.00
2023-05-05T07:25:27.237Z,100.00
2023-05-05T07:27:56.419Z,100.00
2023-05-05T07:30:26.189Z,100.00
2023-05-05T07:32:55.891Z,100.00
2023-05-05T07:35:26.431Z,95.28
2023-05-05T07:37:55.227Z,96.30
2023-05-05T07:40:24.118Z,98.95
2023-05-05T07:42:52.963Z,91.56
2023-05-05T07:45:21.905Z,94.93
2023-05-05T07:47:50.769Z,98.32
2023-05-05T07:50:19.622Z,100.00
2023-05-05T07:52:54.018Z,100.00
2023-05-05T07:55:28.023Z,99.88
2023-05-05T07:57:56.844Z,100.00
2023-05-05T08:00:25.937Z,100.00
2023-05-05T08:02:54.934Z,96.58
2023-05-05T08:05:23.809Z,98.30
2023-05-05T08:07:54.047Z,92.15
2023-05-05T08:10:23.135Z,85.94
2023-05-05T08:12:52.058Z,85.35
2023-05-05T08:15:21.663Z,87.10
2023-05-05T08:17:52.309Z,86.89
2023-05-05T08:20:21.798Z,81.85
2023-05-05T08:22:51.678Z,91.21
2023-05-05T08:25:22.198Z,85.28
2023-05-05T08:27:50.947Z,76.84
2023-05-05T08:30:29.648Z,62.44
2023-05-05T08:32:59.120Z,67.15
2023-05-05T08:35:27.950Z,58.51
2023-05-05T08:37:58.866Z,63.00
2023-05-05T08:40:34.259Z,51.51
2023-05-05T08:43:03.294Z,54.07
2023-05-05T08:45:32.726Z,55.32
2023-05-05T08:48:03.918Z,56.36
2023-05-05T08:50:34.033Z,48.34
2023-05-05T08:53:10.406Z,48.47
2023-05-05T08:55:51.479Z,48.38
2023-05-05T08:58:20.577Z,47.95
2023-05-05T09:00:49.732Z,51.42
2023-05-05T09:03:18.979Z,52.72
2023-05-05T09:05:48.154Z,50.91
2023-05-05T09:08:18.720Z,50.63
2023-05-05T09:10:49.626Z,47.13
2023-05-05T09:13:18.534Z,51.12
2023-05-05T09:15:47.485Z,51.80
2023-05-05T09:18:16.396Z,47.73
2023-05-05T09:20:45.745Z,49.42
2023-05-05T09:23:15.889Z,49.52
2023-05-05T09:25:48.977Z,51.28
2023-05-05T09:28:18.964Z,52.50
2023-05-05T09:30:48.335Z,52.95
2023-05-05T09:33:30.822Z,54.76
2023-05-05T09:35:59.764Z,53.33
2023-05-05T09:38:28.523Z,54.30
2023-05-05T09:40:58.765Z,56.50
2023-05-05T09:43:27.582Z,55.94
2023-05-05T09:46:07.216Z,54.88
2023-05-05T09:48:36.258Z,57.80
2023-05-05T09:51:05.220Z,51.26
2023-05-05T09:53:40.538Z,54.08
2023-05-05T09:56:11.610Z,49.32
2023-05-05T09:58:40.469Z,48.68
2023-05-05T10:01:23.434Z,50.46
2023-05-05T10:03:53.013Z,47.73
2023-05-05T10:06:40.200Z,47.44
2023-05-05T10:09:09.061Z,50.89
2023-05-05T10:11:42.498Z,44.73
2023-05-05T10:14:15.110Z,45.45
2023-05-05T10:16:48.917Z,41.11
2023-05-05T10:19:19.418Z,43.31
2023-05-05T10:21:51.340Z,46.98
2023-05-05T10:24:28.547Z,46.08
2023-05-05T10:27:02.599Z,45.45
2023-05-05T10:29:40.305Z,49.24
2023-05-05T10:32:49.746Z,46.13
2023-05-05T10:35:11.045Z,47.22
2023-05-05T10:37:39.930Z,46.98
2023-05-05T10:40:10.617Z,45.58
2023-05-05T10:42:41.917Z,47.36
2023-05-05T10:45:11.152Z,50.15
2023-05-05T10:47:40.918Z,48.47
2023-05-05T10:50:17.573Z,49.79
2023-05-05T10:52:56.217Z,46.00
2023-05-05T10:55:33.829Z,43.45
2023-05-05T10:58:04.041Z,46.24
2023-05-05T11:00:54.785Z,43.06
2023-05-05T11:03:24.392Z,46.83
2023-05-05T11:06:16.990Z,44.48
2023-05-05T11:08:45.946Z,44.66
2023-05-05T11:11:14.870Z,41.77
2023-05-05T11:13:45.098Z,42.96
2023-05-05T11:16:45.948Z,45.34
2023-05-05T11:19:48.445Z,43.62
2023-05-05T11:22:17.855Z,42.69
2023-05-05T11:24:47.272Z,44.10
2023-05-05T11:27:16.233Z,42.51
2023-05-05T11:30:09.686Z,45.38
2023-05-05T11:32:38.953Z,45.26
2023-05-05T11:35:09.102Z,44.33
2023-05-05T11:37:39.672Z,41.96
2023-05-05T11:40:21.405Z,44.53
2023-05-05T11:42:50.320Z,43.82
2023-05-05T11:45:25.293Z,43.36
2023-05-05T11:47:55.001Z,42.19
2023-05-05T11:50:24.622Z,42.43
2023-05-05T11:52:53.488Z,41.67
2023-05-05T11:55:23.362Z,42.71
2023-05-05T11:57:52.449Z,44.08
2023-05-05T12:00:21.730Z,43.74
2023-05-05T12:02:59.062Z,42.62
2023-05-05T12:05:28.057Z,43.48
2023-05-05T12:08:00.243Z,41.31
2023-05-05T12:10:29.489Z,44.75
2023-05-05T12:12:58.438Z,42.04
2023-05-05T12:15:31.597Z,43.58
2023-05-05T12:18:03.272Z,41.58
2023-05-05T12:20:33.943Z,43.52
2023-05-05T12:23:04.402Z,43.88
2023-05-05T12:25:38.290Z,43.10
2023-05-05T12:28:08.675Z,44.14
2023-05-05T12:30:37.934Z,43.71
2023-05-05T12:33:09.602Z,42.88
2023-05-05T12:35:38.516Z,42.79
2023-05-05T12:38:07.370Z,41.96
2023-05-05T12:40:50.079Z,43.44
2023-05-05T12:43:29.939Z,45.63
2023-05-05T12:46:06.723Z,44.66
2023-05-05T12:48:39.014Z,43.54
2023-05-05T12:51:19.952Z,46.09
2023-05-05T12:53:50.495Z,44.24
2023-05-05T12:56:37.015Z,44.61
2023-05-05T12:59:07.720Z,43.43
2023-05-05T13:01:37.948Z,43.46
2023-05-05T13:04:15.409Z,43.93
2023-05-05T13:06:46.136Z,43.12
2023-05-05T13:09:25.051Z,43.66
2023-05-05T13:11:54.602Z,44.99
2023-05-05T13:14:24.093Z,44.88
2023-05-05T13:16:54.020Z,43.61
2023-05-05T13:19:25.065Z,43.26
2023-05-05T13:21:54.200Z,43.88
2023-05-05T13:24:46.294Z,44.70
2023-05-05T13:27:21.915Z,44.05
2023-05-05T13:29:50.740Z,45.83
2023-05-05T13:32:19.614Z,43.33
2023-05-05T13:34:49.789Z,44.80
2023-05-05T13:37:18.619Z,43.84
2023-05-05T13:39:47.460Z,44.70
2023-05-05T13:42:16.366Z,44.73
2023-05-05T13:44:45.208Z,44.87
2023-05-05T13:47:14.540Z,45.23
2023-05-05T13:49:43.529Z,45.02
2023-05-05T13:52:13.761Z,45.67
2023-05-05T13:54:42.701Z,46.15
2023-05-05T13:57:12.429Z,46.30
2023-05-05T13:59:41.273Z,47.77
2023-05-05T14:02:10.103Z,46.46
2023-05-05T14:04:38.943Z,47.95
2023-05-05T14:07:07.789Z,46.47
2023-05-05T14:09:38.009Z,49.02
2023-05-05T14:12:07.321Z,50.06
2023-05-05T14:14:36.160Z,52.25
2023-05-05T14:17:05.106Z,51.21
2023-05-05T14:19:34.046Z,51.27
2023-05-05T14:22:03.283Z,51.71
2023-05-05T14:24:32.226Z,51.62
2023-05-05T14:27:03.052Z,53.73
2023-05-05T14:29:31.947Z,52.61
2023-05-05T14:32:01.454Z,51.31
2023-05-05T14:34:30.527Z,52.73
2023-05-05T14:36:59.409Z,51.19
2023-05-05T14:39:28.342Z,49.61
2023-05-05T14:41:57.139Z,51.44
2023-05-05T14:44:27.354Z,49.79
2023-05-05T14:46:56.183Z,51.08
2023-05-05T14:49:25.087Z,51.17
2023-05-05T14:51:56.110Z,49.85
2023-05-05T14:54:28.818Z,49.92
2023-05-05T14:56:58.457Z,51.17
2023-05-05T14:59:28.907Z,49.62
2023-05-05T15:01:57.822Z,52.12
2023-05-05T15:04:26.796Z,56.13
2023-05-05T15:06:55.723Z,57.77
2023-05-05T15:09:24.553Z,56.10
2023-05-05T15:11:53.343Z,55.67
2023-05-05T15:14:22.231Z,55.00
2023-05-05T15:16:52.442Z,55.30
2023-05-05T15:19:21.220Z,56.40
2023-05-05T15:21:53.236Z,54.92
2023-05-05T15:24:22.398Z,57.91
2023-05-05T15:26:51.262Z,62.14
2023-05-05T15:29:20.098Z,63.68
2023-05-05T15:31:48.947Z,61.13
2023-05-05T15:34:19.278Z,60.24
2023-05-05T15:36:48.293Z,61.32
2023-05-05T15:39:17.410Z,62.53
2023-05-05T15:41:46.370Z,60.76
2023-05-05T15:44:15.210Z,60.84
2023-05-05T15:46:44.027Z,62.59
2023-05-05T15:49:12.942Z,63.78
2023-05-05T15:51:43.136Z,62.62
2023-05-05T15:54:12.015Z,61.42
2023-05-05T15:56:40.954Z,62.73
2023-05-05T15:59:09.784Z,61.39
2023-05-05T16:01:38.872Z,66.16
2023-05-05T16:04:07.812Z,63.58
2023-05-05T16:06:36.827Z,63.99
2023-05-05T16:09:07.062Z,62.96
2023-05-05T16:11:37.228Z,62.53
2023-05-05T16:14:06.082Z,64.00
2023-05-05T16:16:34.984Z,63.55
2023-05-05T16:19:03.803Z,63.30
2023-05-05T16:21:33.450Z,61.74
2023-05-05T16:24:02.288Z,64.50
2023-05-05T16:26:32.459Z,61.98
2023-05-05T16:29:01.988Z,63.88
2023-05-05T16:31:32.216Z,65.85
2023-05-05T16:34:01.184Z,66.51
2023-05-05T16:36:30.245Z,64.16
2023-05-05T16:38:59.735Z,66.97
2023-05-05T16:41:28.771Z,67.29
2023-05-05T16:43:59.031Z,67.06
2023-05-05T16:46:28.209Z,68.31
2023-05-05T16:48:57.212Z,67.28
2023-05-05T16:51:26.358Z,65.30
2023-05-05T16:53:55.200Z,66.43
2023-05-05T16:56:24.026Z,66.38
2023-05-05T16:58:52.791Z,65.96
2023-05-05T17:01:23.154Z,66.79
2023-05-05T17:03:52.267Z,66.37
2023-05-05T17:06:21.088Z,67.04
2023-05-05T17:08:49.997Z,67.90
2023-05-05T17:11:18.760Z,66.64
2023-05-05T17:13:47.641Z,68.28
2023-05-05T17:16:16.456Z,67.55
2023-05-05T17:18:46.713Z,67.13
2023-05-05T17:21:15.581Z,68.58
2023-05-05T17:23:44.382Z,66.00
2023-05-05T17:26:13.179Z,65.84
2023-05-05T17:28:41.991Z,66.62
2023-05-05T17:31:11.109Z,65.53
2023-05-05T17:33:39.961Z,64.42
2023-05-05T17:36:10.993Z,64.75
2023-05-05T17:38:39.774Z,65.02
2023-05-05T17:41:08.667Z,66.37
2023-05-05T17:43:37.448Z,65.06
2023-05-05T17:46:06.550Z,65.29
2023-05-05T17:48:35.448Z,65.18
2023-05-05T17:51:04.316Z,65.45
2023-05-05T17:53:34.578Z,64.08
2023-05-05T17:56:03.720Z,63.39
2023-05-05T17:58:33.016Z,63.89
2023-05-05T18:01:01.922Z,63.48
2023-05-05T18:03:30.970Z,63.27
2023-05-05T18:06:00.213Z,62.48
2023-05-05T18:08:29.708Z,62.23
2023-05-05T18:10:59.883Z,63.96
2023-05-05T18:13:28.746Z,64.46
2023-05-05T18:15:57.593Z,62.92
2023-05-05T18:18:26.556Z,63.64
2023-05-05T18:20:55.622Z,63.30
2023-05-05T18:23:24.488Z,63.03
2023-05-05T18:25:53.382Z,62.59
2023-05-05T18:28:23.561Z,61.93
2023-05-05T18:30:52.601Z,61.47
2023-05-05T18:33:21.500Z,61.20
2023-05-05T18:35:50.526Z,61.34
2023-05-05T18:38:19.756Z,62.81
2023-05-05T18:40:48.625Z,66.63
2023-05-05T18:43:17.537Z,70.25
2023-05-05T18:45:47.887Z,74.04
2023-05-05T18:48:16.816Z,75.94
2023-05-05T18:50:46.804Z,75.56
2023-05-05T18:53:17.781Z,77.29
2023-05-05T18:55:47.105Z,79.68
2023-05-05T18:58:16.839Z,80.99
2023-05-05T19:00:47.082Z,78.52
2023-05-05T19:03:16.353Z,74.78
2023-05-05T19:05:45.226Z,74.75
2023-05-05T19:08:14.022Z,74.92
2023-05-05T19:10:43.060Z,77.31
2023-05-05T19:13:11.912Z,74.80
2023-05-05T19:15:40.863Z,74.43
2023-05-05T19:18:11.560Z,73.77
2023-05-05T19:20:42.869Z,76.25
2023-05-05T19:23:11.833Z,76.63
2023-05-05T19:25:40.848Z,74.18
2023-05-05T19:28:10.793Z,75.30
2023-05-05T19:30:39.657Z,75.14
2023-05-05T19:33:09.969Z,70.84
2023-05-05T19:35:38.865Z,68.50
2023-05-05T19:38:09.788Z,65.52
2023-05-05T19:40:38.995Z,62.27
2023-05-05T19:43:08.200Z,62.07
2023-05-05T19:45:37.488Z,59.23
2023-05-05T19:48:07.056Z,77.38
2023-05-05T19:50:37.312Z,81.08
2023-05-05T19:53:06.255Z,87.93
2023-05-05T19:55:35.707Z,84.86
2023-05-05T19:58:04.544Z,83.75
2023-05-05T20:00:33.515Z,83.46
2023-05-05T20:03:02.383Z,82.96
2023-05-05T20:05:31.268Z,82.82
2023-05-05T20:08:01.453Z,83.61
2023-05-05T20:10:30.314Z,83.83
2023-05-05T20:12:59.259Z,81.65
2023-05-05T20:15:28.328Z,86.24
2023-05-05T20:17:57.183Z,86.67
2023-05-05T20:20:26.150Z,88.46
2023-05-05T20:22:54.972Z,84.82
2023-05-05T20:25:25.351Z,81.57
2023-05-05T20:27:54.184Z,85.38
2023-05-05T20:30:23.089Z,80.97
2023-05-05T20:32:52.062Z,85.60
2023-05-05T20:35:21.413Z,89.49
2023-05-05T20:37:51.334Z,87.03
2023-05-05T20:40:20.209Z,86.20
2023-05-05T20:42:50.428Z,93.42
2023-05-05T20:45:19.275Z,92.87
2023-05-05T20:47:48.147Z,92.68
2023-05-05T20:50:18.603Z,89.91
2023-05-05T20:52:47.512Z,91.66
2023-05-05T20:55:16.782Z,86.50
2023-05-05T20:57:46.077Z,90.78
2023-05-05T21:00:17.058Z,91.04
2023-05-05T21:02:46.204Z,90.58
2023-05-05T21:05:15.348Z,86.61
2023-05-05T21:07:44.612Z,85.55
2023-05-05T21:10:13.501Z,86.38
2023-05-05T21:12:42.431Z,81.47
2023-05-05T21:15:12.539Z,88.82
2023-05-05T21:17:42.740Z,95.68
2023-05-05T21:20:12.835Z,95.88
2023-05-05T21:22:41.878Z,96.72
2023-05-05T21:25:15.238Z,96.74
2023-05-05T21:27:44.203Z,94.18
2023-05-05T21:30:14.003Z,96.63
2023-05-05T21:32:44.803Z,92.57
2023-05-05T21:35:13.690Z,88.49
2023-05-05T21:37:42.608Z,88.94
2023-05-05T21:40:13.921Z,88.75
2023-05-05T21:42:43.488Z,90.87
2023-05-05T21:45:13.084Z,91.12
2023-05-05T21:47:42.099Z,90.98
2023-05-05T21:50:13.145Z,95.19
2023-05-05T21:52:42.142Z,95.98
2023-05-05T21:55:11.339Z,92.48
2023-05-05T21:57:40.194Z,90.18
2023-05-05T22:00:10.965Z,88.36
2023-05-05T22:02:43.692Z,90.26
2023-05-05T22:05:14.077Z,91.95
2023-05-05T22:07:42.948Z,88.14
2023-05-05T22:10:12.166Z,88.33
2023-05-05T22:12:41.307Z,87.99
2023-05-05T22:15:11.334Z,85.01
2023-05-05T22:17:40.964Z,90.34
2023-05-05T22:20:10.596Z,90.96
2023-05-05T22:22:40.950Z,86.96
2023-05-05T22:25:11.022Z,87.21
2023-05-05T22:27:40.037Z,87.35
2023-05-05T22:30:10.160Z,88.67
2023-05-05T22:32:39.053Z,89.61
2023-05-05T22:35:09.351Z,91.25
2023-05-05T22:37:38.308Z,91.44
2023-05-05T22:40:10.469Z,100.00
2023-05-05T22:42:39.446Z,100.00
2023-05-05T22:45:09.667Z,96.04
2023-05-05T22:47:38.791Z,95.56
2023-05-05T22:50:13.021Z,93.11
2023-05-05T22:52:41.994Z,92.53
2023-05-05T22:55:14.593Z,91.35
2023-05-05T22:57:43.643Z,91.42
2023-05-05T23:00:13.202Z,92.18
2023-05-05T23:02:42.835Z,90.65
2023-05-05T23:05:12.155Z,97.03
2023-05-05T23:07:41.227Z,100.00
2023-05-05T23:10:12.193Z,100.00
2023-05-05T23:12:41.103Z,100.00
2023-05-05T23:15:11.217Z,100.00
2023-05-05T23:17:40.624Z,100.00
2023-05-05T23:20:12.213Z,100.00
2023-05-05T23:22:41.145Z,100.00
2023-05-05T23:25:10.939Z,100.00
2023-05-05T23:27:42.141Z,100.00
2023-05-05T23:30:11.842Z,97.61
2023-05-05T23:32:40.932Z,100.00
2023-05-05T23:35:11.213Z,100.00
2023-05-05T23:37:40.199Z,99.26
2023-05-05T23:40:10.245Z,100.00
2023-05-05T23:42:39.077Z,100.00
2023-05-05T23:45:11.326Z,100.00
2023-05-05T23:47:40.530Z,97.12
2023-05-05T23:50:10.596Z,100.00
2023-05-05T23:52:39.834Z,100.00
2023-05-05T23:55:10.105Z,100.00
2023-05-05T23:57:39.346Z,100.00
